sensor_id;sensor_type;location;lat;lon;timestamp;temperature;humidity
44729;DHT22;30457;53.590;9.922;2022-07-26T00:00:55;23.40;52.10
44729;DHT22;30457;53.590;9.922;2022-07-26T00:05:21;23.40;52.20
44729;DHT22;30457;53.590;9.922;2022-07-26T00:09:47;23.40;52.20
44729;DHT22;30457;53.590;9.922;2022-07-26T00:14:12;23.30;52.30
44729;DHT22;30457;53.590;9.922;2022-07-26T00:18:38;23.20;52.10
44729;DHT22;30457;53.590;9.922;2022-07-26T00:23:04;23.20;52.00
44729;DHT22;30457;53.590;9.922;2022-07-26T00:27:30;23.10;51.80
44729;DHT22;30457;53.590;9.922;2022-07-26T00:31:55;23.00;52.00
44729;DHT22;30457;53.590;9.922;2022-07-26T00:36:21;23.00;52.00
44729;DHT22;30457;53.590;9.922;2022-07-26T00:40:46;22.90;52.30
44729;DHT22;30457;53.590;9.922;2022-07-26T00:45:13;22.90;52.30
44729;DHT22;30457;53.590;9.922;2022-07-26T00:49:39;22.80;52.40
44729;DHT22;30457;53.590;9.922;2022-07-26T00:54:05;22.80;52.40
44729;DHT22;30457;53.590;9.922;2022-07-26T00:58:31;22.70;52.50
44729;DHT22;30457;53.590;9.922;2022-07-26T01:02:57;22.70;52.70
44729;DHT22;30457;53.590;9.922;2022-07-26T01:07:24;22.70;52.70
44729;DHT22;30457;53.590;9.922;2022-07-26T01:11:50;22.60;52.70
44729;DHT22;30457;53.590;9.922;2022-07-26T01:16:16;22.60;53.00
44729;DHT22;30457;53.590;9.922;2022-07-26T01:20:43;22.50;53.10
44729;DHT22;30457;53.590;9.922;2022-07-26T01:25:09;22.50;53.20
44729;DHT22;30457;53.590;9.922;2022-07-26T01:29:35;22.50;53.40
44729;DHT22;30457;53.590;9.922;2022-07-26T01:34:01;22.40;53.30
44729;DHT22;30457;53.590;9.922;2022-07-26T01:38:27;22.40;53.40
44729;DHT22;30457;53.590;9.922;2022-07-26T01:42:52;22.30;53.50
44729;DHT22;30457;53.590;9.922;2022-07-26T01:47:18;22.30;53.50
44729;DHT22;30457;53.590;9.922;2022-07-26T01:51:43;22.30;53.50
44729;DHT22;30457;53.590;9.922;2022-07-26T01:56:09;22.20;53.50
44729;DHT22;30457;53.590;9.922;2022-07-26T02:00:35;22.10;53.60
44729;DHT22;30457;53.590;9.922;2022-07-26T02:05:00;22.20;53.80
44729;DHT22;30457;53.590;9.922;2022-07-26T02:09:26;22.20;54.00
44729;DHT22;30457;53.590;9.922;2022-07-26T02:13:51;22.10;53.90
44729;DHT22;30457;53.590;9.922;2022-07-26T02:18:17;22.10;53.80
44729;DHT22;30457;53.590;9.922;2022-07-26T02:22:42;22.10;53.80
44729;DHT22;30457;53.590;9.922;2022-07-26T02:27:08;22.10;53.90
44729;DHT22;30457;53.590;9.922;2022-07-26T02:31:34;22.10;54.10
44729;DHT22;30457;53.590;9.922;2022-07-26T02:35:59;22.00;54.00
44729;DHT22;30457;53.590;9.922;2022-07-26T02:40:25;22.00;54.20
44729;DHT22;30457;53.590;9.922;2022-07-26T02:44:50;22.00;54.20
44729;DHT22;30457;53.590;9.922;2022-07-26T02:49:18;21.90;54.20
44729;DHT22;30457;53.590;9.922;2022-07-26T02:53:43;21.90;54.40
44729;DHT22;30457;53.590;9.922;2022-07-26T02:58:09;21.90;54.60
44729;DHT22;30457;53.590;9.922;2022-07-26T03:02:35;21.90;54.50
44729;DHT22;30457;53.590;9.922;2022-07-26T03:07:01;21.80;54.50
44729;DHT22;30457;53.590;9.922;2022-07-26T03:11:26;21.80;54.80
44729;DHT22;30457;53.590;9.922;2022-07-26T03:15:52;21.80;55.10
44729;DHT22;30457;53.590;9.922;2022-07-26T03:20:17;21.80;54.90
44729;DHT22;30457;53.590;9.922;2022-07-26T03:24:43;21.80;55.00
44729;DHT22;30457;53.590;9.922;2022-07-26T03:29:09;21.80;55.10
44729;DHT22;30457;53.590;9.922;2022-07-26T03:33:34;21.80;55.20
44729;DHT22;30457;53.590;9.922;2022-07-26T03:38:00;21.80;55.30
44729;DHT22;30457;53.590;9.922;2022-07-26T03:42:25;21.80;55.60
44729;DHT22;30457;53.590;9.922;2022-07-26T03:46:51;21.80;55.50
44729;DHT22;30457;53.590;9.922;2022-07-26T03:51:17;21.80;55.70
44729;DHT22;30457;53.590;9.922;2022-07-26T03:55:42;21.80;55.60
44729;DHT22;30457;53.590;9.922;2022-07-26T04:00:26;21.80;55.70
44729;DHT22;30457;53.590;9.922;2022-07-26T04:04:52;21.80;55.80
44729;DHT22;30457;53.590;9.922;2022-07-26T04:09:17;21.80;55.80
44729;DHT22;30457;53.590;9.922;2022-07-26T04:13:43;21.80;55.80
44729;DHT22;30457;53.590;9.922;2022-07-26T04:18:09;21.90;55.80
44729;DHT22;30457;53.590;9.922;2022-07-26T04:22:35;21.90;55.80
44729;DHT22;30457;53.590;9.922;2022-07-26T04:27:01;21.90;55.80
44729;DHT22;30457;53.590;9.922;2022-07-26T04:31:27;21.90;55.80
44729;DHT22;30457;53.590;9.922;2022-07-26T04:35:52;21.90;55.90
44729;DHT22;30457;53.590;9.922;2022-07-26T04:40:19;21.90;56.60
44729;DHT22;30457;53.590;9.922;2022-07-26T04:44:45;21.90;56.30
44729;DHT22;30457;53.590;9.922;2022-07-26T04:49:11;21.90;56.50
44729;DHT22;30457;53.590;9.922;2022-07-26T04:53:38;21.90;56.50
44729;DHT22;30457;53.590;9.922;2022-07-26T04:58:03;21.90;56.40
44729;DHT22;30457;53.590;9.922;2022-07-26T05:02:29;22.00;56.30
44729;DHT22;30457;53.590;9.922;2022-07-26T05:06:54;22.00;56.40
44729;DHT22;30457;53.590;9.922;2022-07-26T05:11:26;22.00;56.30
44729;DHT22;30457;53.590;9.922;2022-07-26T05:15:52;22.10;56.20
44729;DHT22;30457;53.590;9.922;2022-07-26T05:20:18;22.10;56.00
44729;DHT22;30457;53.590;9.922;2022-07-26T05:24:43;22.00;56.00
44729;DHT22;30457;53.590;9.922;2022-07-26T05:29:09;22.00;56.10
44729;DHT22;30457;53.590;9.922;2022-07-26T05:33:34;21.90;56.20
44729;DHT22;30457;53.590;9.922;2022-07-26T05:38:00;21.90;56.30
44729;DHT22;30457;53.590;9.922;2022-07-26T05:42:26;21.80;56.40
44729;DHT22;30457;53.590;9.922;2022-07-26T05:46:51;21.80;56.40
44729;DHT22;30457;53.590;9.922;2022-07-26T05:51:17;21.70;56.40
44729;DHT22;30457;53.590;9.922;2022-07-26T05:55:42;21.70;56.50
44729;DHT22;30457;53.590;9.922;2022-07-26T06:00:08;21.60;56.70
44729;DHT22;30457;53.590;9.922;2022-07-26T06:04:37;21.60;57.00
44729;DHT22;30457;53.590;9.922;2022-07-26T06:09:03;21.60;57.20
44729;DHT22;30457;53.590;9.922;2022-07-26T06:13:28;21.60;57.30
44729;DHT22;30457;53.590;9.922;2022-07-26T06:17:54;21.60;57.50
44729;DHT22;30457;53.590;9.922;2022-07-26T06:22:20;21.70;57.80
44729;DHT22;30457;53.590;9.922;2022-07-26T06:26:45;21.70;57.50
44729;DHT22;30457;53.590;9.922;2022-07-26T06:31:11;21.70;57.70
44729;DHT22;30457;53.590;9.922;2022-07-26T06:35:37;21.80;58.00
44729;DHT22;30457;53.590;9.922;2022-07-26T06:40:05;21.90;58.00
44729;DHT22;30457;53.590;9.922;2022-07-26T06:44:30;22.00;58.50
44729;DHT22;30457;53.590;9.922;2022-07-26T06:48:56;22.10;58.30
44729;DHT22;30457;53.590;9.922;2022-07-26T06:53:21;22.20;57.70
44729;DHT22;30457;53.590;9.922;2022-07-26T06:57:47;22.20;57.60
44729;DHT22;30457;53.590;9.922;2022-07-26T07:02:12;22.20;57.40
44729;DHT22;30457;53.590;9.922;2022-07-26T07:06:38;22.20;56.70
44729;DHT22;30457;53.590;9.922;2022-07-26T07:11:04;22.20;56.70
44729;DHT22;30457;53.590;9.922;2022-07-26T07:15:29;22.20;56.60
44729;DHT22;30457;53.590;9.922;2022-07-26T07:19:55;22.20;57.40
44729;DHT22;30457;53.590;9.922;2022-07-26T07:24:21;22.30;57.20
44729;DHT22;30457;53.590;9.922;2022-07-26T07:28:47;22.40;57.00
44729;DHT22;30457;53.590;9.922;2022-07-26T07:33:13;22.50;57.40
44729;DHT22;30457;53.590;9.922;2022-07-26T07:37:39;22.70;56.70
44729;DHT22;30457;53.590;9.922;2022-07-26T07:42:05;22.80;55.50
44729;DHT22;30457;53.590;9.922;2022-07-26T07:46:30;22.80;54.40
44729;DHT22;30457;53.590;9.922;2022-07-26T07:50:56;22.60;55.10
44729;DHT22;30457;53.590;9.922;2022-07-26T07:55:21;22.50;54.90
44729;DHT22;30457;53.590;9.922;2022-07-26T07:59:47;22.50;54.90
44729;DHT22;30457;53.590;9.922;2022-07-26T08:04:12;22.50;55.30
44729;DHT22;30457;53.590;9.922;2022-07-26T08:08:38;22.40;55.30
44729;DHT22;30457;53.590;9.922;2022-07-26T08:13:04;22.50;54.90
44729;DHT22;30457;53.590;9.922;2022-07-26T08:17:30;22.70;55.50
44729;DHT22;30457;53.590;9.922;2022-07-26T08:21:55;22.80;56.20
44729;DHT22;30457;53.590;9.922;2022-07-26T08:26:21;23.00;56.20
44729;DHT22;30457;53.590;9.922;2022-07-26T08:30:46;23.20;55.00
44729;DHT22;30457;53.590;9.922;2022-07-26T08:35:12;23.30;54.90
44729;DHT22;30457;53.590;9.922;2022-07-26T08:39:38;23.50;55.30
44729;DHT22;30457;53.590;9.922;2022-07-26T08:44:08;23.60;55.10
44729;DHT22;30457;53.590;9.922;2022-07-26T08:48:34;23.90;55.10
44729;DHT22;30457;53.590;9.922;2022-07-26T08:53:01;24.10;54.10
44729;DHT22;30457;53.590;9.922;2022-07-26T08:57:28;24.30;53.10
44729;DHT22;30457;53.590;9.922;2022-07-26T09:06:22;24.50;51.20
44729;DHT22;30457;53.590;9.922;2022-07-26T09:10:48;24.40;50.60
44729;DHT22;30457;53.590;9.922;2022-07-26T09:15:19;24.20;50.50
44729;DHT22;30457;53.590;9.922;2022-07-26T09:19:46;24.10;51.00
44729;DHT22;30457;53.590;9.922;2022-07-26T09:24:38;24.00;50.60
44729;DHT22;30457;53.590;9.922;2022-07-26T09:29:10;24.00;51.50
44729;DHT22;30457;53.590;9.922;2022-07-26T09:33:47;24.20;51.20
44729;DHT22;30457;53.590;9.922;2022-07-26T09:38:14;24.40;51.90
44729;DHT22;30457;53.590;9.922;2022-07-26T09:42:56;24.60;50.20
44729;DHT22;30457;53.590;9.922;2022-07-26T09:47:33;24.90;49.10
44729;DHT22;30457;53.590;9.922;2022-07-26T09:51:59;25.10;50.10
44729;DHT22;30457;53.590;9.922;2022-07-26T09:56:43;25.30;48.80
44729;DHT22;30457;53.590;9.922;2022-07-26T10:01:09;25.40;47.40
44729;DHT22;30457;53.590;9.922;2022-07-26T10:05:35;25.40;47.30
44729;DHT22;30457;53.590;9.922;2022-07-26T10:10:06;25.40;47.70
44729;DHT22;30457;53.590;9.922;2022-07-26T10:14:39;25.40;47.60
44729;DHT22;30457;53.590;9.922;2022-07-26T10:19:05;25.40;47.00
44729;DHT22;30457;53.590;9.922;2022-07-26T10:28:01;25.60;44.90
44729;DHT22;30457;53.590;9.922;2022-07-26T10:32:28;25.70;45.40
44729;DHT22;30457;53.590;9.922;2022-07-26T10:37:08;25.70;43.70
44729;DHT22;30457;53.590;9.922;2022-07-26T10:41:36;25.90;43.30
44729;DHT22;30457;53.590;9.922;2022-07-26T10:50:41;26.10;42.90
44729;DHT22;30457;53.590;9.922;2022-07-26T10:55:07;26.20;42.90
44729;DHT22;30457;53.590;9.922;2022-07-26T10:59:33;26.10;43.00
44729;DHT22;30457;53.590;9.922;2022-07-26T11:03:59;26.20;43.40
44729;DHT22;30457;53.590;9.922;2022-07-26T11:08:28;26.30;43.70
44729;DHT22;30457;53.590;9.922;2022-07-26T11:17:26;26.40;42.00
44729;DHT22;30457;53.590;9.922;2022-07-26T11:21:54;26.30;42.70
44729;DHT22;30457;53.590;9.922;2022-07-26T11:26:21;26.40;41.30
44729;DHT22;30457;53.590;9.922;2022-07-26T11:31:00;26.40;42.30
44729;DHT22;30457;53.590;9.922;2022-07-26T11:35:26;26.60;41.40
44729;DHT22;30457;53.590;9.922;2022-07-26T11:39:51;26.70;41.60
44729;DHT22;30457;53.590;9.922;2022-07-26T11:44:19;26.80;40.60
44729;DHT22;30457;53.590;9.922;2022-07-26T11:48:50;26.90;39.10
44729;DHT22;30457;53.590;9.922;2022-07-26T11:53:20;26.90;39.60
44729;DHT22;30457;53.590;9.922;2022-07-26T11:57:46;26.90;39.40
44729;DHT22;30457;53.590;9.922;2022-07-26T12:02:12;27.00;39.40
44729;DHT22;30457;53.590;9.922;2022-07-26T12:06:38;27.00;39.30
44729;DHT22;30457;53.590;9.922;2022-07-26T12:11:05;27.20;39.70
44729;DHT22;30457;53.590;9.922;2022-07-26T12:15:48;27.30;37.90
44729;DHT22;30457;53.590;9.922;2022-07-26T12:20:17;27.40;36.70
44729;DHT22;30457;53.590;9.922;2022-07-26T12:29:26;27.60;37.10
44729;DHT22;30457;53.590;9.922;2022-07-26T12:33:52;27.70;36.50
44729;DHT22;30457;53.590;9.922;2022-07-26T12:38:17;27.70;35.40
44729;DHT22;30457;53.590;9.922;2022-07-26T12:43:02;27.70;35.00
44729;DHT22;30457;53.590;9.922;2022-07-26T12:47:28;27.80;34.60
44729;DHT22;30457;53.590;9.922;2022-07-26T12:51:53;27.70;35.20
44729;DHT22;30457;53.590;9.922;2022-07-26T12:56:19;27.60;35.70
44729;DHT22;30457;53.590;9.922;2022-07-26T13:00:45;27.50;35.80
44729;DHT22;30457;53.590;9.922;2022-07-26T13:05:10;27.50;35.30
44729;DHT22;30457;53.590;9.922;2022-07-26T13:09:36;27.60;34.70
44729;DHT22;30457;53.590;9.922;2022-07-26T13:14:02;27.60;34.80
44729;DHT22;30457;53.590;9.922;2022-07-26T13:18:27;27.60;35.40
44729;DHT22;30457;53.590;9.922;2022-07-26T13:22:53;27.70;36.00
44729;DHT22;30457;53.590;9.922;2022-07-26T13:27:18;27.90;34.70
44729;DHT22;30457;53.590;9.922;2022-07-26T13:31:44;28.00;35.20
44729;DHT22;30457;53.590;9.922;2022-07-26T13:36:10;28.20;35.20
44729;DHT22;30457;53.590;9.922;2022-07-26T13:40:35;28.20;34.20
44729;DHT22;30457;53.590;9.922;2022-07-26T13:45:01;28.10;34.00
44729;DHT22;30457;53.590;9.922;2022-07-26T13:49:26;28.20;32.70
44729;DHT22;30457;53.590;9.922;2022-07-26T13:53:54;28.20;32.70
44729;DHT22;30457;53.590;9.922;2022-07-26T13:58:19;28.10;32.40
44729;DHT22;30457;53.590;9.922;2022-07-26T14:02:45;28.20;33.20
44729;DHT22;30457;53.590;9.922;2022-07-26T14:07:11;28.20;33.00
44729;DHT22;30457;53.590;9.922;2022-07-26T14:11:37;28.20;32.70
44729;DHT22;30457;53.590;9.922;2022-07-26T14:16:03;28.10;31.90
44729;DHT22;30457;53.590;9.922;2022-07-26T14:20:28;27.90;31.20
44729;DHT22;30457;53.590;9.922;2022-07-26T14:24:54;27.80;32.20
44729;DHT22;30457;53.590;9.922;2022-07-26T14:29:21;27.70;32.50
44729;DHT22;30457;53.590;9.922;2022-07-26T14:33:46;27.70;32.80
44729;DHT22;30457;53.590;9.922;2022-07-26T14:38:12;27.70;34.00
44729;DHT22;30457;53.590;9.922;2022-07-26T14:42:38;27.90;34.10
44729;DHT22;30457;53.590;9.922;2022-07-26T14:47:04;28.10;33.40
44729;DHT22;30457;53.590;9.922;2022-07-26T14:51:29;28.20;32.40
44729;DHT22;30457;53.590;9.922;2022-07-26T14:55:55;28.30;32.20
44729;DHT22;30457;53.590;9.922;2022-07-26T15:00:20;28.40;30.90
44729;DHT22;30457;53.590;9.922;2022-07-26T15:04:46;28.40;31.70
44729;DHT22;30457;53.590;9.922;2022-07-26T15:09:11;28.50;31.80
44729;DHT22;30457;53.590;9.922;2022-07-26T15:13:37;28.40;31.10
44729;DHT22;30457;53.590;9.922;2022-07-26T15:18:03;28.50;31.10
44729;DHT22;30457;53.590;9.922;2022-07-26T15:22:28;28.40;31.30
44729;DHT22;30457;53.590;9.922;2022-07-26T15:26:54;28.20;31.50
44729;DHT22;30457;53.590;9.922;2022-07-26T15:31:19;28.10;32.10
44729;DHT22;30457;53.590;9.922;2022-07-26T15:35:45;28.00;31.70
44729;DHT22;30457;53.590;9.922;2022-07-26T15:40:11;27.80;32.10
44729;DHT22;30457;53.590;9.922;2022-07-26T15:44:37;27.70;32.40
44729;DHT22;30457;53.590;9.922;2022-07-26T15:49:03;27.60;32.60
44729;DHT22;30457;53.590;9.922;2022-07-26T15:53:30;27.50;32.30
44729;DHT22;30457;53.590;9.922;2022-07-26T15:57:58;27.40;32.90
44729;DHT22;30457;53.590;9.922;2022-07-26T16:02:24;27.30;32.40
44729;DHT22;30457;53.590;9.922;2022-07-26T16:06:49;27.20;32.30
44729;DHT22;30457;53.590;9.922;2022-07-26T16:11:15;27.20;32.20
44729;DHT22;30457;53.590;9.922;2022-07-26T16:15:41;27.10;31.60
44729;DHT22;30457;53.590;9.922;2022-07-26T16:20:07;27.10;31.20
44729;DHT22;30457;53.590;9.922;2022-07-26T16:24:33;27.00;31.40
44729;DHT22;30457;53.590;9.922;2022-07-26T16:28:58;26.90;31.90
44729;DHT22;30457;53.590;9.922;2022-07-26T16:33:24;26.60;32.20
44729;DHT22;30457;53.590;9.922;2022-07-26T16:37:50;26.50;33.00
44729;DHT22;30457;53.590;9.922;2022-07-26T16:42:16;26.30;32.60
44729;DHT22;30457;53.590;9.922;2022-07-26T16:46:41;26.10;33.00
44729;DHT22;30457;53.590;9.922;2022-07-26T16:51:07;26.00;32.80
44729;DHT22;30457;53.590;9.922;2022-07-26T16:55:33;25.80;32.50
44729;DHT22;30457;53.590;9.922;2022-07-26T16:59:58;25.70;33.10
44729;DHT22;30457;53.590;9.922;2022-07-26T17:04:24;25.50;33.10
44729;DHT22;30457;53.590;9.922;2022-07-26T17:08:49;25.50;33.10
44729;DHT22;30457;53.590;9.922;2022-07-26T17:13:15;25.60;32.60
44729;DHT22;30457;53.590;9.922;2022-07-26T17:17:40;25.70;32.30
44729;DHT22;30457;53.590;9.922;2022-07-26T17:22:06;25.60;31.80
44729;DHT22;30457;53.590;9.922;2022-07-26T17:26:32;25.50;31.80
44729;DHT22;30457;53.590;9.922;2022-07-26T17:30:57;25.40;32.20
44729;DHT22;30457;53.590;9.922;2022-07-26T17:35:23;25.30;32.10
44729;DHT22;30457;53.590;9.922;2022-07-26T17:39:48;25.20;32.40
44729;DHT22;30457;53.590;9.922;2022-07-26T17:44:14;25.10;32.50
44729;DHT22;30457;53.590;9.922;2022-07-26T17:48:40;25.00;32.80
44729;DHT22;30457;53.590;9.922;2022-07-26T17:53:08;24.90;32.30
44729;DHT22;30457;53.590;9.922;2022-07-26T17:57:33;24.80;32.50
44729;DHT22;30457;53.590;9.922;2022-07-26T18:01:59;24.70;33.20
44729;DHT22;30457;53.590;9.922;2022-07-26T18:06:24;24.50;33.00
44729;DHT22;30457;53.590;9.922;2022-07-26T18:10:50;24.40;33.40
44729;DHT22;30457;53.590;9.922;2022-07-26T18:15:16;24.30;33.90
44729;DHT22;30457;53.590;9.922;2022-07-26T18:19:41;24.30;34.20
44729;DHT22;30457;53.590;9.922;2022-07-26T18:24:07;24.20;34.40
44729;DHT22;30457;53.590;9.922;2022-07-26T18:28:32;24.10;34.60
44729;DHT22;30457;53.590;9.922;2022-07-26T18:32:58;24.00;35.20
44729;DHT22;30457;53.590;9.922;2022-07-26T18:37:24;23.90;35.60
44729;DHT22;30457;53.590;9.922;2022-07-26T18:41:49;23.80;36.20
44729;DHT22;30457;53.590;9.922;2022-07-26T18:46:15;23.60;36.30
44729;DHT22;30457;53.590;9.922;2022-07-26T18:50:40;23.60;36.70
44729;DHT22;30457;53.590;9.922;2022-07-26T18:55:08;23.50;36.70
44729;DHT22;30457;53.590;9.922;2022-07-26T18:59:34;23.30;37.00
44729;DHT22;30457;53.590;9.922;2022-07-26T19:03:59;23.20;37.50
44729;DHT22;30457;53.590;9.922;2022-07-26T19:08:25;23.10;37.60
44729;DHT22;30457;53.590;9.922;2022-07-26T19:12:50;23.10;37.80
44729;DHT22;30457;53.590;9.922;2022-07-26T19:17:16;23.00;38.10
44729;DHT22;30457;53.590;9.922;2022-07-26T19:21:42;22.90;38.20
44729;DHT22;30457;53.590;9.922;2022-07-26T19:26:11;22.90;38.60
44729;DHT22;30457;53.590;9.922;2022-07-26T19:30:36;22.80;38.60
44729;DHT22;30457;53.590;9.922;2022-07-26T19:35:03;22.70;38.80
44729;DHT22;30457;53.590;9.922;2022-07-26T19:39:29;22.70;39.30
44729;DHT22;30457;53.590;9.922;2022-07-26T19:43:55;22.70;39.30
44729;DHT22;30457;53.590;9.922;2022-07-26T19:48:20;22.60;39.30
44729;DHT22;30457;53.590;9.922;2022-07-26T19:52:46;22.50;39.30
44729;DHT22;30457;53.590;9.922;2022-07-26T19:57:11;22.40;39.50
44729;DHT22;30457;53.590;9.922;2022-07-26T20:01:37;22.40;39.60
44729;DHT22;30457;53.590;9.922;2022-07-26T20:06:02;22.30;39.80
44729;DHT22;30457;53.590;9.922;2022-07-26T20:10:28;22.30;39.90
44729;DHT22;30457;53.590;9.922;2022-07-26T20:14:54;22.20;40.10
44729;DHT22;30457;53.590;9.922;2022-07-26T20:19:19;22.20;40.10
44729;DHT22;30457;53.590;9.922;2022-07-26T20:23:45;22.10;40.30
44729;DHT22;30457;53.590;9.922;2022-07-26T20:28:11;22.10;40.60
44729;DHT22;30457;53.590;9.922;2022-07-26T20:32:36;22.00;40.70
44729;DHT22;30457;53.590;9.922;2022-07-26T20:37:02;22.00;40.80
44729;DHT22;30457;53.590;9.922;2022-07-26T20:41:28;21.90;41.20
44729;DHT22;30457;53.590;9.922;2022-07-26T20:45:53;21.90;41.70
44729;DHT22;30457;53.590;9.922;2022-07-26T20:50:19;21.80;41.70
44729;DHT22;30457;53.590;9.922;2022-07-26T20:54:45;21.80;42.10
44729;DHT22;30457;53.590;9.922;2022-07-26T20:59:11;21.80;41.80
44729;DHT22;30457;53.590;9.922;2022-07-26T21:03:36;21.70;41.90
44729;DHT22;30457;53.590;9.922;2022-07-26T21:08:02;21.70;41.90
44729;DHT22;30457;53.590;9.922;2022-07-26T21:12:28;21.60;42.60
44729;DHT22;30457;53.590;9.922;2022-07-26T21:16:54;21.50;42.00
44729;DHT22;30457;53.590;9.922;2022-07-26T21:21:20;21.50;42.00
44729;DHT22;30457;53.590;9.922;2022-07-26T21:25:46;21.40;42.10
44729;DHT22;30457;53.590;9.922;2022-07-26T21:30:12;21.30;42.30
44729;DHT22;30457;53.590;9.922;2022-07-26T21:34:37;21.30;42.40
44729;DHT22;30457;53.590;9.922;2022-07-26T21:39:03;21.20;42.40
44729;DHT22;30457;53.590;9.922;2022-07-26T21:43:28;21.20;43.00
44729;DHT22;30457;53.590;9.922;2022-07-26T21:47:54;21.10;43.00
44729;DHT22;30457;53.590;9.922;2022-07-26T21:52:20;21.10;43.20
44729;DHT22;30457;53.590;9.922;2022-07-26T21:56:45;21.00;43.30
44729;DHT22;30457;53.590;9.922;2022-07-26T22:01:11;21.00;43.50
44729;DHT22;30457;53.590;9.922;2022-07-26T22:05:37;21.00;43.30
44729;DHT22;30457;53.590;9.922;2022-07-26T22:10:02;20.90;43.50
44729;DHT22;30457;53.590;9.922;2022-07-26T22:14:28;20.90;43.50
44729;DHT22;30457;53.590;9.922;2022-07-26T22:18:54;20.90;43.70
44729;DHT22;30457;53.590;9.922;2022-07-26T22:23:20;20.80;44.10
44729;DHT22;30457;53.590;9.922;2022-07-26T22:27:47;20.80;44.20
44729;DHT22;30457;53.590;9.922;2022-07-26T22:32:12;20.70;43.90
44729;DHT22;30457;53.590;9.922;2022-07-26T22:36:38;20.70;44.00
44729;DHT22;30457;53.590;9.922;2022-07-26T22:41:03;20.70;44.10
44729;DHT22;30457;53.590;9.922;2022-07-26T22:45:29;20.60;44.30
44729;DHT22;30457;53.590;9.922;2022-07-26T22:49:55;20.60;44.50
44729;DHT22;30457;53.590;9.922;2022-07-26T22:54:21;20.50;44.50
44729;DHT22;30457;53.590;9.922;2022-07-26T22:58:46;20.50;44.60
44729;DHT22;30457;53.590;9.922;2022-07-26T23:03:12;20.40;44.80
44729;DHT22;30457;53.590;9.922;2022-07-26T23:07:38;20.40;44.90
44729;DHT22;30457;53.590;9.922;2022-07-26T23:12:03;20.30;45.10
44729;DHT22;30457;53.590;9.922;2022-07-26T23:16:29;20.30;45.20
44729;DHT22;30457;53.590;9.922;2022-07-26T23:20:54;20.20;45.30
44729;DHT22;30457;53.590;9.922;2022-07-26T23:25:20;20.10;45.40
44729;DHT22;30457;53.590;9.922;2022-07-26T23:29:47;20.10;45.50
44729;DHT22;30457;53.590;9.922;2022-07-26T23:34:14;20.00;45.50
44729;DHT22;30457;53.590;9.922;2022-07-26T23:38:40;20.00;45.80
44729;DHT22;30457;53.590;9.922;2022-07-26T23:43:05;20.00;45.80
44729;DHT22;30457;53.590;9.922;2022-07-26T23:47:31;20.00;46.00
44729;DHT22;30457;53.590;9.922;2022-07-26T23:51:56;20.00;45.90
44729;DHT22;30457;53.590;9.922;2022-07-26T23:56:22;19.90;46.00
